»·PEaware :: UAL283 KSFO-KLAX

UAL283 :: KSFO-KLAX

FLIGHT INFORMATION

Flight Status: Arrived
Operator:
United Airlines
More flights by this operator :: More flights under this callsign
Pilot: Alexander A. (30958)
Aircraft: BOEING 737-800
(B738)
More flights by this aircraft type
Origin: KSFO San Francisco Intl
United States
Destination: KLAX Los Angeles Intl
United States
More flights between these airports :: More routes between these airports
Route: +SSTIK4 EBAYE BURGL IRNMN2
File this flight plan on PilotEdge
Remarks: Old Scenery at LA
Altitude:
(Current/Filed)
35,000ft
Speed:
(Current/Filed)
320kts
Departed: 01-Aug-20 01:07 PM
Arrived: 01-Aug-20 02:00 PM
Distance/Time
Traveled:
293nm/0:53
Distance/Time
To Go:
Arrived

Flight Plot

Page will automatically refresh every two minutes.


Map Options




Map Legend


Flown Route
Filed Route
Departure Airport
Arrival Airport
Navaid (VOR, NDB)
Fix

Horizontal Profiles

Position Reports

Time Latitude Longitude Heading Altitude Ground
Speed
01-Aug-20 12:47 37.618557 -122.387560 153 21ft 0kts
01-Aug-20 12:48 37.618557 -122.387560 153 21ft 0kts
01-Aug-20 12:49 37.618557 -122.387560 153 21ft 0kts
01-Aug-20 12:50 37.618557 -122.387560 153 21ft 0kts
01-Aug-20 12:51 37.618557 -122.387560 153 21ft 0kts
01-Aug-20 12:52 37.618557 -122.387560 153 21ft 0kts
01-Aug-20 12:53 37.618557 -122.387560 153 21ft 0kts
01-Aug-20 12:54 37.618678 -122.387634 153 21ft 2kts
01-Aug-20 12:55 37.619112 -122.387902 153 21ft 0kts
01-Aug-20 12:56 37.619112 -122.387902 153 21ft 0kts
01-Aug-20 12:57 37.618873 -122.388765 294 21ft 13kts
01-Aug-20 12:58 37.619953 -122.391115 298 21ft 3kts
01-Aug-20 12:59 37.621505 -122.391560 30 21ft 15kts
01-Aug-20 13:00 37.621633 -122.386728 120 21ft 14kts
01-Aug-20 13:01 37.619074 -122.380645 124 21ft 9kts
01-Aug-20 13:02 37.614910 -122.380786 208 21ft 12kts
01-Aug-20 13:03 37.610812 -122.383501 207 21ft 14kts
01-Aug-20 13:04 37.608496 -122.383852 116 21ft 0kts
01-Aug-20 13:05 37.608495 -122.383850 116 21ft 0kts
01-Aug-20 13:06 37.621098 -122.374287 23 104ft 156kts
01-Aug-20 13:07 37.665416 -122.363603 342 2622ft 200kts
01-Aug-20 13:08 37.704064 -122.424012 261 5671ft 270kts
01-Aug-20 13:09 37.640088 -122.454897 169 9576ft 299kts
01-Aug-20 13:10 37.554118 -122.463292 189 12400ft 340kts
01-Aug-20 13:11 37.458422 -122.432971 140 14544ft 390kts
01-Aug-20 13:12 37.382428 -122.331085 133 17113ft 406kts
01-Aug-20 13:13 37.304619 -122.224443 134 19341ft 420kts
01-Aug-20 13:14 37.223782 -122.114678 134 21281ft 434kts
01-Aug-20 13:15 37.140621 -122.002153 134 22986ft 445kts
01-Aug-20 13:16 37.055142 -121.887290 134 24471ft 456kts
01-Aug-20 13:17 36.967546 -121.770089 134 25843ft 466kts
01-Aug-20 13:18 36.878118 -121.650929 134 27084ft 474kts
01-Aug-20 13:19 36.786891 -121.529821 134 28171ft 482kts
01-Aug-20 13:20 36.694152 -121.407131 135 29223ft 487kts
01-Aug-20 13:21 36.601732 -121.284979 135 30525ft 484kts
01-Aug-20 13:22 36.509269 -121.163714 136 31699ft 483kts
01-Aug-20 13:23 36.416991 -121.042407 134 32798ft 483kts
01-Aug-20 13:24 36.329188 -120.915670 134 33800ft 484kts
01-Aug-20 13:25 36.241177 -120.789612 134 34717ft 482kts
01-Aug-20 13:26 36.153251 -120.663766 134 35055ft 484kts
01-Aug-20 13:27 36.064989 -120.537878 134 35054ft 483kts
01-Aug-20 13:28 35.976727 -120.412711 135 35051ft 483kts
01-Aug-20 13:29 35.887819 -120.288891 138 35051ft 481kts
01-Aug-20 13:30 35.781131 -120.193821 153 35051ft 473kts
01-Aug-20 13:31 35.668713 -120.109790 153 35049ft 473kts
01-Aug-20 13:32 35.556151 -120.025073 152 35038ft 473kts
01-Aug-20 13:33 35.444225 -119.940562 152 35033ft 473kts
01-Aug-20 13:34 35.331778 -119.856353 152 35027ft 473kts
01-Aug-20 13:35 35.223001 -119.764251 145 32950ft 478kts
01-Aug-20 13:36 35.117788 -119.664495 145 30743ft 481kts
01-Aug-20 13:38 35.011631 -119.565634 145 28659ft 486kts
01-Aug-20 13:39 34.905915 -119.467801 145 26551ft 463kts
01-Aug-20 13:40 34.806852 -119.379245 145 25439ft 423kts
01-Aug-20 13:41 34.713232 -119.296300 146 23128ft 408kts
01-Aug-20 13:42 34.622450 -119.217321 146 20964ft 393kts
01-Aug-20 13:43 34.535225 -119.141483 145 18870ft 378kts
01-Aug-20 13:44 34.451901 -119.067743 145 16761ft 366kts
01-Aug-20 13:45 34.369987 -118.996626 146 14644ft 356kts
01-Aug-20 13:46 34.294297 -118.929078 145 13680ft 316kts
01-Aug-20 13:47 34.225478 -118.866271 146 12086ft 307kts
01-Aug-20 13:48 34.157693 -118.803520 143 11973ft 309kts
01-Aug-20 13:49 34.092623 -118.732163 140 10120ft 317kts
01-Aug-20 13:50 34.032868 -118.657102 114 8829ft 300kts
01-Aug-20 13:51 34.020048 -118.563602 95 8152ft 263kts
01-Aug-20 13:52 34.012087 -118.477302 96 7054ft 255kts
01-Aug-20 13:53 34.020809 -118.393925 77 6054ft 249kts
01-Aug-20 13:53 34.030875 -118.325293 82 6002ft 252kts
01-Aug-20 13:55 34.023103 -118.232150 138 5811ft 243kts
01-Aug-20 13:56 33.960496 -118.210044 172 4152ft 235kts
01-Aug-20 13:56 33.926061 -118.242895 275 3208ft 221kts
01-Aug-20 13:57 33.942611 -118.308935 281 1153ft 194kts
01-Aug-20 13:59 33.939122 -118.367630 264 408ft 132kts
01-Aug-20 14:00 33.936356 -118.398784 295 134ft 18kts
01-Aug-20 14:00 33.937062 -118.400450 305 134ft 0kts
01-Aug-20 14:01 33.940179 -118.403090 346 134ft 24kts

Navigation Log

Ident Type
Flight plan parsing failed, navigation log unavailable